Overview Statistics Trail Chart Weather Telemetry Raw packets
 

This is the latest recevied weather packets stored in our database for station/object OE6ATD-13. If no packets are shown the sender has not sent any weather packets the latest 10 day(s).

<< 43 44 45 46 47 48 49 >>
Time Temp. Humidity Pressure Rain* Wind** Luminosity Snow
1788037827 17.22° C 80% 1017.1 hPa 0 mm - 0 W/m² -
1788037222 17.22° C 81% 1017.1 hPa 0 mm - 0 W/m² -
1788036618 17.22° C 75% 1017.2 hPa 0 mm - 0 W/m² -
1788036029 17.22° C 74% 1017.1 hPa 0 mm - 0 W/m² -
1788035424 17.22° C 75% 1017.1 hPa 0 mm - 0 W/m² -
1788034820 17.22° C 76% 1017.2 hPa 0 mm - 0 W/m² -
1788034216 17.22° C 75% 1017.1 hPa 0 mm - 0 W/m² -
1788033617 17.22° C 76% 1017 hPa 0 mm - 0 W/m² -
1788033028 17.22° C 75% 1017.1 hPa 0 mm - 0 W/m² -
1788032424 17.78° C 74% 1017 hPa 0 mm - 0 W/m² -
1788031822 17.78° C 74% 1017 hPa 0 mm - 0 W/m² -
1788031215 17.78° C 73% 1017 hPa 0 mm - 0 W/m² -
1788030627 18.33° C 71% 1017.1 hPa 0 mm - 0 W/m² -
1788030023 18.33° C 70% 1017.1 hPa 0 mm - 0 W/m² -
1788029418 18.89° C 70% 1017 hPa 0 mm - 0 W/m² -
1788028829 18.89° C 69% 1017 hPa 0 mm - 0 W/m² -
1788028228 19.44° C 67% 1016.9 hPa 0 mm - 0 W/m² -
1788027624 19.44° C 65% 1016.7 hPa 0 mm - 0 W/m² -
1788027019 20° C 63% 1016.6 hPa 0 mm - 0 W/m² -
1788026416 20.56° C 63% 1016.4 hPa 0 mm - 0 W/m² -
1788025827 21.11° C 62% 1016.2 hPa 0 mm - 0 W/m² -
1788025222 21.67° C 60% 1016.2 hPa 0 mm - 1 W/m² -
1788024618 22.78° C 53% 1016.1 hPa 0 mm - 5 W/m² -
1788024029 24.44° C 48% 1016.2 hPa 0 mm - 11 W/m² -
1788023425 25.56° C 42% 1016.3 hPa 0 mm - 17 W/m² -

* Rain latest hour (hover to see other rain measurements)
** Current wind speed in m/s (hover to see current wind gust speed)